Time;durP1;ratioP1;P1;durP2;ratioP2;P2;SDS_P1;SDS_P2;PMS_P1;PMS_P2;Temp;Humidity;BMP_temperature;BMP_pressure;BME280_temperature;BME280_humidity;BME280_pressure;Samples;Min_cycle;Max_cycle;Signal;HPM_P1;HPM_P2
2022/01/22 00:01:43;;;;;;;17.77;7.75;;;;;;;3.62;97.09;101306.97;12280765;19;20031;-84
2022/01/22 00:05:45;;;;;;;17.33;7.75;;;;;;;3.61;97.18;101299.81;12283659;19;20449;-84
2022/01/22 00:09:52;;;;;;;14.02;8.65;;;;;;;3.59;97.64;101295.56;12280102;19;20026;-85
2022/01/22 00:18:14;;;;;;;17.63;8.00;;;;;;;3.61;97.69;101291.63;12287007;19;20057;-83
2022/01/22 00:22:16;;;;;;;18.50;7.47;;;;;;;3.61;97.75;101299.81;12277250;19;20015;-84
2022/01/22 00:26:18;;;;;;;15.07;7.40;;;;;;;3.65;97.88;101297.59;12277112;19;20001;-84
2022/01/22 00:30:23;;;;;;;18.35;7.78;;;;;;;3.63;97.83;101295.06;12267778;19;20010;-84
2022/01/22 00:34:24;;;;;;;15.40;8.23;;;;;;;3.63;98.31;101300.50;12255429;19;20045;-83
2022/01/22 00:38:26;;;;;;;12.80;7.70;;;;;;;3.68;97.66;101294.53;12255659;19;20018;-84
2022/01/22 00:42:28;;;;;;;14.40;6.60;;;;;;;3.74;97.51;101293.00;12249828;19;20014;-85
2022/01/22 00:46:30;;;;;;;12.93;6.88;;;;;;;3.73;97.21;101285.88;12258104;19;20022;-84
2022/01/22 00:50:31;;;;;;;12.95;6.70;;;;;;;3.77;96.84;101287.22;12248375;19;20044;-84
2022/01/22 00:54:33;;;;;;;12.80;6.15;;;;;;;3.80;96.40;101292.34;12248176;19;20413;-84
2022/01/22 00:58:35;;;;;;;7.68;3.72;;;;;;;3.82;95.64;101302.06;12242306;19;20010;-84
2022/01/22 01:02:37;;;;;;;10.90;3.40;;;;;;;3.85;95.03;101300.88;12239227;19;20556;-83
2022/01/22 01:06:39;;;;;;;4.80;2.30;;;;;;;3.90;93.76;101309.41;12239291;19;20015;-83
2022/01/22 01:10:41;;;;;;;8.45;3.28;;;;;;;3.98;93.35;101308.53;12240171;19;20025;-84
2022/01/22 01:15:12;;;;;;;8.15;2.97;;;;;;;4.01;92.56;101300.00;12231191;19;20007;-83
2022/01/22 01:32:20;;;;;;;6.70;2.70;;;;;;;4.03;91.41;101287.06;12234683;19;20070;-85
2022/01/22 01:36:23;;;;;;;8.05;3.38;;;;;;;4.01;91.20;101289.94;12244006;19;20014;-85
2022/01/22 01:40:29;;;;;;;8.93;2.90;;;;;;;4.01;91.30;101292.69;12238729;19;20007;-84
2022/01/22 01:44:31;;;;;;;8.68;2.80;;;;;;;4.01;91.42;101292.69;12235063;19;20010;-86
2022/01/22 01:48:49;;;;;;;6.97;2.92;;;;;;;4.06;91.11;101306.66;12241318;19;20074;-85
2022/01/22 01:53:06;;;;;;;4.55;2.75;;;;;;;4.11;91.08;101306.16;12245831;19;20018;-85
2022/01/22 02:01:29;;;;;;;6.47;3.00;;;;;;;4.15;90.78;101306.66;12248948;19;20404;-84
2022/01/22 02:05:55;;;;;;;4.72;2.95;;;;;;;4.17;90.63;101304.63;12241893;19;20015;-85
2022/01/22 02:09:59;;;;;;;6.60;3.03;;;;;;;4.20;90.70;101305.13;12239654;19;20006;-85
2022/01/22 02:27:00;;;;;;;6.57;3.20;;;;;;;4.12;90.27;101291.50;12245148;19;20086;-84
2022/01/22 02:35:42;;;;;;;8.05;3.17;;;;;;;4.16;90.23;101294.72;12240851;19;20007;-84
2022/01/22 02:39:58;;;;;;;8.93;2.88;;;;;;;4.13;90.39;101282.28;12240876;19;20088;-84
2022/01/22 02:44:01;;;;;;;6.72;4.00;;;;;;;4.11;90.07;101285.19;12236588;19;20010;-85
2022/01/22 02:48:03;;;;;;;6.30;3.30;;;;;;;4.11;90.10;101284.34;12235224;19;20011;-84
2022/01/22 02:52:09;;;;;;;10.50;3.78;;;;;;;4.16;89.87;101281.06;12234252;19;20015;-85
2022/01/22 02:56:15;;;;;;;6.70;3.72;;;;;;;4.10;89.75;101272.59;12237634;19;20023;-81
2022/01/22 03:00:18;;;;;;;12.60;3.92;;;;;;;4.05;90.10;101272.25;12231380;19;20374;-84
2022/01/22 03:04:20;;;;;;;8.48;4.07;;;;;;;3.99;90.27;101270.19;12231518;19;20548;-81
2022/01/22 03:08:27;;;;;;;8.88;4.35;;;;;;;4.01;90.25;101270.84;12239738;19;20301;-81
2022/01/22 03:16:54;;;;;;;11.00;4.35;;;;;;;4.04;90.22;101269.66;12228989;19;20015;-82
2022/01/22 03:29:30;;;;;;;8.05;4.20;;;;;;;4.06;90.08;101282.13;12244795;19;20038;-83
2022/01/22 03:33:32;;;;;;;9.75;4.60;;;;;;;4.04;90.25;101280.56;12235745;19;20049;-82
2022/01/22 03:37:34;;;;;;;8.63;4.10;;;;;;;4.06;90.33;101284.84;12243042;19;20027;-84
2022/01/22 03:41:36;;;;;;;10.88;4.50;;;;;;;4.04;90.21;101286.88;12235433;19;20745;-84
2022/01/22 03:45:37;;;;;;;8.55;4.00;;;;;;;4.05;90.28;101283.16;12241833;19;20013;-85
2022/01/22 03:49:39;;;;;;;10.73;4.35;;;;;;;4.03;90.45;101289.78;12241353;19;20026;-81
2022/01/22 03:53:45;;;;;;;7.53;4.72;;;;;;;4.02;90.33;101285.38;12241805;19;20007;-84
2022/01/22 03:57:46;;;;;;;11.35;4.45;;;;;;;4.02;90.45;101283.50;12245477;19;20312;-84
2022/01/22 04:06:11;;;;;;;9.77;4.65;;;;;;;4.03;90.21;101292.53;12246548;19;20030;-84
2022/01/22 04:10:14;;;;;;;9.80;3.90;;;;;;;4.06;90.10;101289.44;12245068;19;20010;-84
2022/01/22 04:14:21;;;;;;;10.20;4.15;;;;;;;4.02;90.26;101280.75;12254124;19;20006;-85
2022/01/22 04:27:11;;;;;;;7.45;3.83;;;;;;;4.00;90.04;101268.31;12262048;19;20017;-84
2022/01/22 04:31:12;;;;;;;9.02;4.07;;;;;;;4.04;90.11;101273.25;12250212;19;20285;-85
2022/01/22 04:35:15;;;;;;;8.52;3.60;;;;;;;4.08;89.97;101273.78;12249987;19;20480;-85
2022/01/22 04:39:19;;;;;;;10.23;4.10;;;;;;;4.07;89.86;101264.72;12250587;19;20042;-84
2022/01/22 04:43:25;;;;;;;12.80;4.40;;;;;;;4.03;89.75;101274.28;12247247;19;20039;-84
2022/01/22 04:47:36;;;;;;;9.52;4.40;;;;;;;4.01;90.01;101279.03;12240416;19;20014;-84
2022/01/22 04:55:59;;;;;;;10.13;4.95;;;;;;;4.05;90.11;101269.50;12259020;19;20022;-84
2022/01/22 05:00:10;;;;;;;14.65;5.00;;;;;;;4.09;89.99;101273.59;12250638;19;19998;-82
2022/01/22 05:04:32;;;;;;;8.77;4.35;;;;;;;4.04;90.09;101273.25;12252377;19;20002;-85
2022/01/22 05:08:53;;;;;;;9.82;4.20;;;;;;;4.03;89.92;101276.16;12254020;19;20133;-84
2022/01/22 05:12:58;;;;;;;9.70;4.10;;;;;;;4.02;89.85;101285.38;12254234;19;20014;-85
2022/01/22 05:17:03;;;;;;;7.97;4.82;;;;;;;4.04;90.01;101283.31;12251423;19;22050;-84
2022/01/22 05:21:10;;;;;;;9.18;4.43;;;;;;;4.06;90.04;101284.84;12246668;19;20015;-82
2022/01/22 05:25:19;;;;;;;7.85;4.30;;;;;;;4.07;90.16;101285.69;12255099;19;20010;-81
2022/01/22 05:38:08;;;;;;;8.63;4.38;;;;;;;4.03;90.69;101281.63;12249096;19;20065;-84
2022/01/22 05:42:11;;;;;;;7.40;4.18;;;;;;;4.03;90.53;101287.91;12237798;19;20017;-84
2022/01/22 05:46:12;;;;;;;9.57;4.25;;;;;;;4.01;90.39;101286.38;12245705;19;20070;-84
2022/01/22 05:50:31;;;;;;;12.90;5.15;;;;;;;4.00;90.50;101288.25;12243964;19;20756;-84
2022/01/22 06:03:23;;;;;;;7.95;4.05;;;;;;;4.04;90.50;101286.88;12274946;19;20027;-82
2022/01/22 06:07:26;;;;;;;7.25;3.70;;;;;;;4.06;90.11;101292.19;12251736;19;20007;-82
2022/01/22 06:11:30;;;;;;;6.97;4.28;;;;;;;4.03;90.54;101304.28;12240916;19;20006;-82
2022/01/22 06:15:32;;;;;;;10.27;4.03;;;;;;;4.05;90.19;101306.84;12237367;19;20583;-81
2022/01/22 06:19:52;;;;;;;8.18;3.33;;;;;;;4.01;90.50;101306.31;12250568;19;20041;-84
2022/01/22 06:23:58;;;;;;;7.03;3.55;;;;;;;4.04;90.47;101307.84;12240353;19;20014;-81
2022/01/22 06:28:01;;;;;;;8.38;4.35;;;;;;;4.03;90.34;101308.88;12246859;19;20018;-84
2022/01/22 06:32:04;;;;;;;7.25;3.92;;;;;;;4.06;90.48;101309.41;12246386;19;20014;-84
2022/01/22 06:36:09;;;;;;;6.07;3.40;;;;;;;4.07;90.68;101313.81;12245591;19;20014;-83
2022/01/22 06:44:37;;;;;;;5.47;3.10;;;;;;;4.09;90.66;101319.97;12245246;19;20039;-81
2022/01/22 06:48:58;;;;;;;9.30;3.57;;;;;;;4.14;90.94;101322.19;12247315;19;20021;-81
2022/01/22 06:53:11;;;;;;;7.82;3.80;;;;;;;4.18;90.37;101322.69;12241113;19;20018;-81
2022/01/22 06:57:17;;;;;;;10.18;4.05;;;;;;;4.16;90.71;101324.72;12227646;19;20013;-84
2022/01/22 07:01:19;;;;;;;9.33;4.03;;;;;;;4.09;91.07;101325.41;12241512;19;20010;-84
2022/01/22 07:05:36;;;;;;;8.32;4.35;;;;;;;4.15;91.10;101326.63;12242823;19;20022;-83
2022/01/22 07:09:41;;;;;;;11.48;4.82;;;;;;;4.18;90.89;101331.72;12244155;19;20011;-83
2022/01/22 07:13:44;;;;;;;10.45;5.13;;;;;;;4.25;91.28;101342.81;12247524;19;20014;-84
2022/01/22 07:17:46;;;;;;;;;;;;;;;4.20;91.19;101353.41;12241986;19;20600;-85
2022/01/22 07:21:58;;;;;;;10.05;5.75;;;;;;;4.21;91.09;101345.03;12246470;19;20228;-84
2022/01/22 07:26:05;;;;;;;11.70;5.30;;;;;;;4.19;91.58;101340.75;12243764;19;20021;-84
2022/01/22 07:30:19;;;;;;;10.18;4.97;;;;;;;4.20;91.42;101354.25;12240899;19;20013;-81
2022/01/22 07:34:21;;;;;;;9.95;5.80;;;;;;;4.21;91.48;101366.00;12250653;19;20011;-81
2022/01/22 07:38:24;;;;;;;9.63;5.55;;;;;;;4.22;91.57;101367.69;12258041;19;20003;-81
2022/01/22 07:42:26;;;;;;;13.57;6.05;;;;;;;4.26;91.78;101369.94;12255124;19;20078;-82
2022/01/22 07:46:47;;;;;;;11.00;5.72;;;;;;;4.28;91.49;101369.75;12251080;19;20017;-82
2022/01/22 07:50:57;;;;;;;10.55;5.70;;;;;;;4.29;91.40;101380.50;12249970;19;20037;-82
2022/01/22 07:55:00;;;;;;;10.02;5.82;;;;;;;4.30;91.38;101375.91;12262917;19;20112;-82
2022/01/22 07:59:02;;;;;;;12.80;5.95;;;;;;;4.25;92.16;101368.25;12261950;19;20020;-82
2022/01/22 08:03:09;;;;;;;13.40;6.00;;;;;;;4.29;92.69;101360.56;12267732;19;20045;-83
2022/01/22 08:07:29;;;;;;;11.40;5.50;;;;;;;4.32;92.74;101366.53;12256271;19;20030;-82
2022/01/22 08:11:50;;;;;;;16.73;5.90;;;;;;;4.29;93.70;101360.56;12231636;19;20028;-81
2022/01/22 08:15:51;;;;;;;9.98;6.05;;;;;;;4.29;94.38;101366.00;12231762;19;20011;-83
2022/01/22 08:19:54;;;;;;;15.13;6.30;;;;;;;4.30;94.90;101359.53;12226507;19;20034;-83
2022/01/22 08:24:23;;;;;;;15.57;6.55;;;;;;;4.32;94.90;101373.84;12231530;19;20028;-82
2022/01/22 08:33:08;;;;;;;12.23;5.65;;;;;;;4.40;95.42;101375.72;12234594;19;20022;-83
2022/01/22 08:37:09;;;;;;;16.20;7.03;;;;;;;4.43;95.62;101368.06;12235203;19;20007;-82
2022/01/22 08:41:12;;;;;;;13.13;6.70;;;;;;;4.48;95.48;101373.00;12239327;19;20014;-83
2022/01/22 08:45:16;;;;;;;13.27;6.57;;;;;;;4.49;96.02;101375.56;12231247;19;20531;-80
2022/01/22 08:49:20;;;;;;;12.10;6.40;;;;;;;4.51;96.42;101376.22;12237838;19;20010;-82
2022/01/22 08:53:32;;;;;;;10.80;5.70;;;;;;;4.54;96.83;101384.06;12223480;19;20014;-83
2022/01/22 08:57:34;;;;;;;13.70;6.10;;;;;;;4.66;96.51;101387.28;12230531;19;20010;-80
2022/01/22 09:01:44;;;;;;;11.43;5.93;;;;;;;4.69;97.17;101388.84;12231848;19;20003;-83
2022/01/22 09:06:07;;;;;;;10.65;5.20;;;;;;;4.79;97.05;101390.38;12227934;19;20027;-83
2022/01/22 09:10:22;;;;;;;8.25;5.40;;;;;;;4.91;96.73;101401.78;12235713;19;20361;-83
2022/01/22 09:14:55;;;;;;;8.67;5.43;;;;;;;4.92;96.68;101408.94;12229615;19;20013;-80
2022/01/22 09:19:05;;;;;;;7.57;4.10;;;;;;;4.94;96.57;101409.63;12229864;19;20014;-83
2022/01/22 09:23:10;;;;;;;9.52;5.05;;;;;;;4.98;96.13;101412.88;12232871;19;20013;-83
2022/01/22 09:27:13;;;;;;;8.20;4.45;;;;;;;5.05;95.63;101421.22;12234779;19;20027;-83
2022/01/22 09:31:15;;;;;;;8.43;4.65;;;;;;;4.98;95.40;101418.31;12234683;19;20070;-83
2022/01/22 09:35:18;;;;;;;10.80;4.88;;;;;;;4.91;95.47;101420.91;12231033;19;20030;-83
2022/01/22 09:39:33;;;;;;;8.05;4.40;;;;;;;4.94;95.46;101420.56;12233457;19;20392;-83
2022/01/22 09:44:07;;;;;;;9.82;4.57;;;;;;;4.94;95.44;101419.72;12235654;19;20073;-83
2022/01/22 09:48:45;;;;;;;10.63;3.67;;;;;;;4.96;95.77;101428.56;12234269;19;20010;-81
2022/01/22 09:53:07;;;;;;;7.68;4.00;;;;;;;5.03;95.34;101433.16;12238275;19;20027;-80
2022/01/22 09:57:20;;;;;;;7.57;4.30;;;;;;;5.00;95.44;101441.72;12244792;19;20101;-84
2022/01/22 10:01:37;;;;;;;8.40;4.85;;;;;;;5.08;94.89;101434.53;12241926;19;20086;-83
2022/01/22 10:05:48;;;;;;;8.40;4.25;;;;;;;5.14;95.54;101428.34;12245294;19;20024;-83
2022/01/22 10:10:13;;;;;;;8.20;4.20;;;;;;;5.16;95.15;101424.41;12240014;19;20007;-80
2022/01/22 10:14:15;;;;;;;6.55;3.75;;;;;;;5.25;95.03;101426.09;12242995;19;20011;-82
2022/01/22 10:18:20;;;;;;;9.82;4.57;;;;;;;5.35;94.92;101425.88;12250805;19;20007;-81
2022/01/22 10:22:22;;;;;;;6.80;3.92;;;;;;;5.39;94.80;101431.88;12245263;19;20006;-82
2022/01/22 10:26:24;;;;;;;8.50;3.92;;;;;;;5.41;94.79;101436.16;12240214;19;20006;-81
2022/01/22 10:30:35;;;;;;;7.18;4.35;;;;;;;5.37;94.86;101433.94;12241496;19;20017;-81
2022/01/22 10:34:40;;;;;;;7.65;4.68;;;;;;;5.36;94.98;101422.16;12248558;19;20041;-82
2022/01/22 10:39:01;;;;;;;9.88;4.38;;;;;;;5.41;95.09;101417.00;12252040;19;20022;-82
2022/01/22 10:43:28;;;;;;;8.90;4.60;;;;;;;5.46;95.20;101416.47;12247177;19;20439;-82
2022/01/22 10:47:30;;;;;;;10.07;4.20;;;;;;;5.53;94.94;101422.91;12238325;19;20078;-82
2022/01/22 10:51:49;;;;;;;8.82;4.70;;;;;;;5.63;94.78;101423.56;12243633;19;20030;-81
2022/01/22 10:56:04;;;;;;;10.30;4.85;;;;;;;5.67;94.47;101427.63;12238485;19;20011;-81
2022/01/22 11:00:20;;;;;;;10.10;4.80;;;;;;;5.63;94.58;101428.19;12248456;19;20042;-82
2022/01/22 11:04:23;;;;;;;6.97;3.92;;;;;;;5.68;94.73;101426.63;12240876;19;20464;-82
2022/01/22 11:08:29;;;;;;;8.52;4.13;;;;;;;5.74;94.42;101425.06;12241022;19;20014;-81
2022/01/22 11:12:31;;;;;;;11.27;4.88;;;;;;;5.84;94.33;101425.69;12241760;19;20011;-82
2022/01/22 11:16:32;;;;;;;6.97;4.22;;;;;;;5.89;93.95;101428.75;12256911;19;20018;-82
2022/01/22 11:20:47;;;;;;;10.57;5.05;;;;;;;5.81;94.14;101431.50;12248287;19;20070;-82
2022/01/22 11:24:50;;;;;;;10.00;5.47;;;;;;;5.80;94.26;101435.28;12226122;19;20045;-81
2022/01/22 11:28:56;;;;;;;11.10;4.97;;;;;;;5.81;94.76;101444.34;12251302;19;20021;-82
2022/01/22 11:33:03;;;;;;;9.88;5.75;;;;;;;5.88;94.35;101448.06;12250554;19;20011;-83
2022/01/22 11:37:23;;;;;;;8.75;5.32;;;;;;;5.86;94.52;101450.13;12256744;19;20006;-83
2022/01/22 11:41:26;;;;;;;8.52;5.40;;;;;;;5.82;94.25;101452.34;12252713;19;20006;-83
2022/01/22 11:45:51;;;;;;;10.20;6.03;;;;;;;5.81;94.35;101447.09;12256186;19;20014;-82
2022/01/22 11:50:09;;;;;;;9.27;5.97;;;;;;;5.86;94.35;101447.38;12253718;19;20015;-82
2022/01/22 11:54:12;;;;;;;9.48;6.13;;;;;;;5.86;93.96;101440.06;12257134;19;20011;-83
2022/01/22 11:58:15;;;;;;;10.95;6.07;;;;;;;5.88;93.80;101440.69;12254369;19;20519;-82
2022/01/22 12:02:20;;;;;;;9.13;5.82;;;;;;;5.86;93.51;101434.56;12258917;19;20396;-81
2022/01/22 12:06:21;;;;;;;9.45;5.60;;;;;;;5.86;93.58;101428.22;12260164;19;20017;-82
2022/01/22 12:10:42;;;;;;;11.90;5.93;;;;;;;5.87;93.33;101433.53;12257263;19;20013;-82
2022/01/22 12:14:48;;;;;;;11.32;5.75;;;;;;;5.84;92.93;101433.91;12247507;19;20015;-82
2022/01/22 12:18:57;;;;;;;10.27;5.43;;;;;;;5.78;93.25;101431.88;12251733;19;20006;-80
2022/01/22 12:22:59;;;;;;;9.15;5.05;;;;;;;5.81;93.18;101434.25;12249945;19;20021;-80
2022/01/22 12:27:04;;;;;;;9.27;5.57;;;;;;;5.84;93.38;101433.03;12238601;19;20010;-81
2022/01/22 12:31:17;;;;;;;7.50;5.03;;;;;;;5.90;93.26;101429.59;12255826;19;20013;-82
2022/01/22 12:35:36;;;;;;;11.10;5.72;;;;;;;6.04;93.44;101430.72;12259435;19;20013;-82
2022/01/22 12:39:44;;;;;;;8.50;4.97;;;;;;;6.00;93.08;101430.22;12265082;19;20010;-83
2022/01/22 12:43:47;;;;;;;9.80;5.43;;;;;;;6.08;93.17;101432.09;12251334;19;20010;-82
2022/01/22 12:47:49;;;;;;;;;;;;;;;6.14;92.94;101421.25;12248601;19;20051;-82
2022/01/22 12:51:55;;;;;;;9.93;4.95;;;;;;;6.26;92.59;101416.22;12252452;19;19951;-81
2022/01/22 13:00:09;;;;;;;12.65;6.30;;;;;;;6.32;91.96;101418.22;12237094;19;20330;-81
2022/01/22 13:04:12;;;;;;;8.80;4.50;;;;;;;6.27;91.38;101417.91;12251506;19;20035;-81
2022/01/22 13:08:30;;;;;;;5.57;3.50;;;;;;;6.30;91.27;101409.31;12240459;19;20010;-81
2022/01/22 13:12:44;;;;;;;5.30;3.40;;;;;;;6.33;91.01;101410.84;12241139;19;20027;-82
2022/01/22 13:16:56;;;;;;;4.78;3.00;;;;;;;6.32;89.82;101411.91;12244516;19;20025;-83
2022/01/22 13:21:06;;;;;;;7.45;3.50;;;;;;;6.28;88.29;101416.88;12233942;19;20137;-81
2022/01/22 13:25:11;;;;;;;4.57;2.95;;;;;;;6.21;88.84;101415.06;12238774;19;20011;-81
2022/01/22 13:29:25;;;;;;;4.70;3.15;;;;;;;6.21;87.97;101417.78;12240083;19;20074;-81
2022/01/22 13:33:41;;;;;;;4.82;3.13;;;;;;;6.18;88.04;101420.88;12233529;19;20017;-79
2022/01/22 13:38:23;;;;;;;4.78;2.90;;;;;;;6.16;88.08;101423.81;12246055;19;20015;-80
2022/01/22 13:51:11;;;;;;;5.88;3.00;;;;;;;6.16;86.63;101423.81;12244204;19;20007;-80
2022/01/22 13:55:14;;;;;;;5.60;3.60;;;;;;;6.21;86.86;101418.63;12221264;19;20006;-81
2022/01/22 13:59:19;;;;;;;7.68;3.13;;;;;;;6.26;87.01;101421.69;12229426;19;20014;-79
2022/01/22 14:03:31;;;;;;;4.90;3.10;;;;;;;6.28;87.13;101427.84;12231053;19;20393;-82
2022/01/22 14:07:37;;;;;;;4.55;2.88;;;;;;;6.25;86.58;101424.63;12239256;19;19998;-81
2022/01/22 14:12:11;;;;;;;6.40;2.83;;;;;;;6.20;87.01;101427.88;12247683;19;20469;-81
2022/01/22 14:16:16;;;;;;;5.72;2.45;;;;;;;6.19;87.51;101431.66;12245506;19;20028;-81
2022/01/22 14:20:26;;;;;;;4.00;2.58;;;;;;;6.16;87.12;101416.47;12239825;19;20007;-80
2022/01/22 14:24:30;;;;;;;5.15;2.70;;;;;;;6.11;87.35;101415.28;12250379;19;20014;-81
2022/01/22 14:28:55;;;;;;;3.78;2.30;;;;;;;6.08;87.32;101412.94;12235170;19;21133;-80
2022/01/22 14:32:57;;;;;;;4.38;2.40;;;;;;;6.05;87.54;101399.59;12245865;19;20010;-80
2022/01/22 14:37:02;;;;;;;4.90;2.65;;;;;;;6.02;87.67;101405.44;12241219;19;20022;-81
2022/01/22 14:45:30;;;;;;;3.63;2.15;;;;;;;5.99;87.85;101414.00;12251582;19;20022;-81
2022/01/22 14:49:35;;;;;;;4.55;2.60;;;;;;;6.02;88.18;101408.19;12247199;19;20011;-81
2022/01/22 14:53:37;;;;;;;5.60;2.78;;;;;;;5.98;88.42;101413.16;12239604;19;20041;-81
2022/01/22 14:57:42;;;;;;;6.25;2.88;;;;;;;6.02;88.37;101421.84;12245586;19;20010;-81
2022/01/22 15:01:44;;;;;;;26.33;12.45;;;;;;;6.06;88.43;101434.13;12237663;19;20683;-82
2022/01/22 15:05:46;;;;;;;7.43;3.90;;;;;;;6.05;88.62;101432.44;12235607;19;20042;-81
2022/01/22 15:09:48;;;;;;;6.00;3.25;;;;;;;6.08;88.63;101443.03;12235339;19;20095;-81
2022/01/22 15:13:50;;;;;;;12.63;6.45;;;;;;;6.04;88.79;101438.94;12238852;19;20014;-81
2022/01/22 15:18:05;;;;;;;10.02;4.93;;;;;;;6.06;88.85;101445.94;12233153;19;20014;-81
2022/01/22 15:22:11;;;;;;;10.40;4.82;;;;;;;6.02;88.84;101446.50;12227752;19;20496;-81
2022/01/22 15:26:14;;;;;;;13.38;6.47;;;;;;;6.01;89.13;101440.16;12242680;19;20006;-81
2022/01/22 15:30:21;;;;;;;12.63;4.00;;;;;;;5.98;89.17;101451.47;12236379;19;20086;-80
2022/01/22 15:38:31;;;;;;;22.75;9.20;;;;;;;6.01;89.24;101447.50;12187452;19;20074;-81
2022/01/22 15:42:34;;;;;;;9.20;3.28;;;;;;;5.99;89.20;101450.44;12231906;19;20508;-81
2022/01/22 15:46:38;;;;;;;8.33;3.40;;;;;;;5.98;89.27;101448.75;12230860;19;20910;-81
2022/01/22 15:50:39;;;;;;;7.50;3.60;;;;;;;6.04;89.35;101450.75;12224780;19;20095;-82
2022/01/22 15:54:44;;;;;;;6.18;3.13;;;;;;;6.06;89.59;101456.88;12229345;19;20007;-81
2022/01/22 15:58:46;;;;;;;5.85;3.10;;;;;;;6.08;89.53;101462.19;12233737;19;20002;-80
2022/01/22 16:02:47;;;;;;;6.22;3.42;;;;;;;6.03;89.30;101461.88;12236854;19;20085;-80
2022/01/22 16:10:54;;;;;;;6.47;2.92;;;;;;;6.03;89.53;101459.13;12234907;19;20010;-82
2022/01/22 16:14:56;;;;;;;6.35;3.53;;;;;;;6.01;89.59;101458.44;12248352;19;20472;-82
2022/01/22 16:18:58;;;;;;;8.27;4.03;;;;;;;5.93;89.54;101464.84;12244967;19;20463;-81
2022/01/22 16:23:00;;;;;;;9.07;4.87;;;;;;;5.87;89.92;101474.56;12246114;19;20751;-81
2022/01/22 16:27:03;;;;;;;9.20;4.97;;;;;;;5.86;90.26;101472.00;12247307;19;20427;-80
2022/01/22 16:31:04;;;;;;;10.10;5.13;;;;;;;5.88;90.20;101470.78;12245660;19;20082;-82
2022/01/22 16:35:06;;;;;;;12.63;5.95;;;;;;;5.91;90.44;101483.28;12241949;19;19999;-81
2022/01/22 16:39:08;;;;;;;13.27;6.00;;;;;;;5.90;90.65;101476.09;12246203;19;20066;-82
2022/01/22 16:43:10;;;;;;;12.98;6.57;;;;;;;5.88;90.94;101476.25;12242698;19;20003;-81
2022/01/22 16:51:42;;;;;;;16.02;7.25;;;;;;;5.84;91.25;101494.09;12247604;19;20463;-82
2022/01/22 16:55:54;;;;;;;13.02;6.97;;;;;;;5.74;91.63;101498.03;12248456;19;20102;-80
2022/01/22 17:00:01;;;;;;;13.18;7.22;;;;;;;5.74;91.97;101504.41;12239759;19;20046;-81
2022/01/22 17:04:05;;;;;;;11.95;6.60;;;;;;;5.77;91.66;101511.38;12242473;19;20007;-82
2022/01/22 17:08:27;;;;;;;12.25;6.85;;;;;;;5.77;91.74;101517.72;12240384;19;20020;-80
2022/01/22 17:16:48;;;;;;;12.23;6.90;;;;;;;5.67;92.32;101519.78;12225955;19;20010;-83
2022/01/22 17:20:50;;;;;;;12.10;6.55;;;;;;;5.66;92.35;101513.47;12246240;19;20035;-82
2022/01/22 17:24:52;;;;;;;12.88;6.40;;;;;;;5.67;92.45;101509.69;12248817;19;20011;-81
2022/01/22 17:28:56;;;;;;;12.23;6.03;;;;;;;5.72;92.67;101520.97;12249872;19;20003;-81
2022/01/22 17:32:58;;;;;;;11.73;6.68;;;;;;;5.75;92.59;101508.81;12231473;19;20018;-82
2022/01/22 17:37:07;;;;;;;12.95;7.20;;;;;;;5.79;92.50;101521.09;12242123;19;20523;-81
2022/01/22 17:41:11;;;;;;;12.55;7.18;;;;;;;5.79;92.75;101520.25;12239191;19;20030;-82
2022/01/22 17:45:13;;;;;;;16.33;6.47;;;;;;;5.80;92.58;101527.44;12219316;19;20095;-82
2022/01/22 17:49:15;;;;;;;13.57;7.73;;;;;;;5.80;92.88;101528.31;12236022;19;20003;-81
2022/01/22 17:53:17;;;;;;;13.23;7.80;;;;;;;5.73;92.74;101524.56;12238143;19;20435;-81
2022/01/22 17:57:18;;;;;;;14.32;7.50;;;;;;;5.70;92.82;101533.09;12238524;19;20006;-81
2022/01/22 18:01:21;;;;;;;14.73;7.68;;;;;;;5.69;92.62;101526.78;12235008;19;20475;-82
2022/01/22 18:05:23;;;;;;;14.18;7.60;;;;;;;5.62;93.08;101530.38;12232829;19;20006;-82
2022/01/22 18:09:26;;;;;;;13.03;6.53;;;;;;;5.55;93.35;101526.66;12236315;19;20013;-79
2022/01/22 18:13:30;;;;;;;11.98;5.82;;;;;;;5.54;93.41;101525.81;12241658;19;20014;-82
2022/01/22 18:17:32;;;;;;;14.02;6.10;;;;;;;5.53;93.55;101526.81;12246564;19;20014;-82
2022/01/22 18:21:38;;;;;;;12.27;6.63;;;;;;;5.58;93.68;101529.03;12252749;19;20339;-82
2022/01/22 18:26:06;;;;;;;12.95;6.28;;;;;;;5.60;93.42;101532.47;12248372;19;20032;-84
2022/01/22 18:30:28;;;;;;;11.07;6.05;;;;;;;5.56;93.65;101528.34;12251586;19;20025;-83
2022/01/22 18:34:33;;;;;;;;;;;;;;;5.58;93.82;101539.97;12246650;19;20067;-83
2022/01/22 18:38:35;;;;;;;10.10;5.30;;;;;;;5.62;94.02;101538.59;12246403;19;19938;-83
2022/01/22 18:42:40;;;;;;;12.80;7.00;;;;;;;5.63;94.14;101534.84;12250626;19;20050;-82
2022/01/22 18:46:43;;;;;;;13.98;6.45;;;;;;;5.65;94.23;101541.84;12227401;19;20003;-83
2022/01/22 18:50:50;;;;;;;11.77;6.05;;;;;;;5.66;94.40;101548.19;12239028;19;20680;-83
2022/01/22 18:54:52;;;;;;;15.18;7.20;;;;;;;5.65;94.26;101539.13;12240443;19;20077;-84
2022/01/22 18:58:57;;;;;;;11.15;5.75;;;;;;;5.66;94.32;101543.56;12243182;19;20078;-83
2022/01/22 19:02:59;;;;;;;14.05;7.25;;;;;;;5.64;94.64;101539.28;12237887;19;20015;-83
2022/01/22 19:07:02;;;;;;;14.00;6.75;;;;;;;5.64;94.58;101539.28;12246730;19;20396;-84
2022/01/22 19:11:04;;;;;;;13.52;7.88;;;;;;;5.59;94.87;101538.94;12258543;19;20011;-82
2022/01/22 19:15:12;;;;;;;11.85;7.25;;;;;;;5.58;94.73;101537.25;12248406;19;20035;-82
2022/01/22 19:19:22;;;;;;;13.52;6.88;;;;;;;5.57;94.85;101533.66;12238599;19;20022;-83
2022/01/22 19:28:04;;;;;;;13.05;6.90;;;;;;;5.55;95.16;101551.28;12251672;19;20010;-84
2022/01/22 19:32:06;;;;;;;13.68;6.45;;;;;;;5.54;95.29;101544.97;12255241;19;20246;-82
2022/01/22 19:36:09;;;;;;;12.30;7.05;;;;;;;5.53;95.33;101545.97;12231147;19;19998;-83
2022/01/22 19:40:13;;;;;;;15.40;8.27;;;;;;;5.49;95.56;101552.81;12247172;19;20010;-82
2022/01/22 19:44:29;;;;;;;17.67;9.00;;;;;;;5.41;96.16;101550.09;12246718;19;20050;-83
2022/01/22 19:48:30;;;;;;;20.33;10.10;;;;;;;5.39;96.36;101553.00;12254354;19;20014;-82
2022/01/22 19:52:35;;;;;;;18.23;9.55;;;;;;;5.30;96.88;101558.69;12251743;19;20064;-83
2022/01/22 19:56:39;;;;;;;22.85;11.73;;;;;;;5.25;97.27;101557.28;12265445;19;19999;-83
2022/01/22 20:00:43;;;;;;;22.17;10.55;;;;;;;5.24;97.24;101552.00;12258296;19;20025;-83
2022/01/22 20:04:47;;;;;;;18.38;10.20;;;;;;;5.25;97.92;101554.56;12257302;19;20014;-83
2022/01/22 20:08:51;;;;;;;22.58;11.55;;;;;;;5.23;98.33;101555.75;12258780;19;20023;-83
2022/01/22 20:12:55;;;;;;;18.40;9.40;;;;;;;5.26;98.02;101552.69;12262390;19;20010;-84
2022/01/22 20:16:57;;;;;;;25.77;11.23;;;;;;;5.23;98.04;101547.56;12265798;19;20760;-85
2022/01/22 20:21:01;;;;;;;21.50;10.10;;;;;;;5.21;98.43;101545.00;12257662;19;20078;-83
2022/01/22 20:25:23;;;;;;;21.23;10.15;;;;;;;5.23;98.73;101542.09;12254544;19;20015;-82
2022/01/22 20:29:25;;;;;;;18.50;10.13;;;;;;;5.15;99.43;101539.38;12267268;19;20010;-83
2022/01/22 20:33:47;;;;;;;22.75;10.45;;;;;;;5.15;99.59;101542.13;12262371;19;20015;-83
2022/01/22 20:37:50;;;;;;;18.88;10.23;;;;;;;5.16;99.68;101547.41;12258001;19;20010;-82
2022/01/22 20:41:52;;;;;;;22.85;10.75;;;;;;;5.15;100.00;101539.38;12258582;19;20013;-83
2022/01/22 20:46:16;;;;;;;21.75;10.40;;;;;;;5.17;99.78;101542.78;12261245;19;20018;-83
2022/01/22 20:50:23;;;;;;;19.15;9.60;;;;;;;5.23;99.57;101542.09;12263735;19;20030;-83
2022/01/22 20:54:25;;;;;;;25.98;12.32;;;;;;;5.24;99.62;101541.94;12248969;19;20014;-85
2022/01/22 20:58:35;;;;;;;22.52;10.50;;;;;;;5.24;100.00;101541.09;12256845;19;20017;-83
2022/01/22 21:02:37;;;;;;;21.13;10.75;;;;;;;5.24;100.00;101539.19;12255664;19;20014;-84
2022/01/22 21:06:39;;;;;;;25.08;11.13;;;;;;;5.17;100.00;101518.19;12254529;19;20057;-83
2022/01/22 21:10:44;;;;;;;20.93;10.77;;;;;;;5.13;100.00;101520.41;12254316;19;20548;-83
2022/01/22 21:14:46;;;;;;;25.80;11.70;;;;;;;5.16;100.00;101520.06;12250534;19;20137;-81
2022/01/22 21:18:53;;;;;;;25.80;12.15;;;;;;;5.18;100.00;101518.03;12249896;19;20027;-82